sensor_id;sensor_type;location;lat;lon;timestamp;temperature;humidity
52381;DHT22;38310;52.796;6.942;2023-07-13T00:02:07;16.60;99.90
52381;DHT22;38310;52.796;6.942;2023-07-13T00:04:33;16.60;99.90
52381;DHT22;38310;52.796;6.942;2023-07-13T00:06:59;16.50;99.90
52381;DHT22;38310;52.796;6.942;2023-07-13T00:09:25;16.50;99.90
52381;DHT22;38310;52.796;6.942;2023-07-13T00:11:54;16.50;99.90
52381;DHT22;38310;52.796;6.942;2023-07-13T00:14:20;16.50;99.90
52381;DHT22;38310;52.796;6.942;2023-07-13T00:16:47;16.50;99.90
52381;DHT22;38310;52.796;6.942;2023-07-13T00:19:13;16.40;99.90
52381;DHT22;38310;52.796;6.942;2023-07-13T00:21:40;16.40;99.90
52381;DHT22;38310;52.796;6.942;2023-07-13T00:24:07;16.40;99.90
52381;DHT22;38310;52.796;6.942;2023-07-13T00:26:33;16.30;99.90
52381;DHT22;38310;52.796;6.942;2023-07-13T00:28:59;16.30;99.90
52381;DHT22;38310;52.796;6.942;2023-07-13T00:31:26;16.20;99.90
52381;DHT22;38310;52.796;6.942;2023-07-13T00:33:51;16.20;99.90
52381;DHT22;38310;52.796;6.942;2023-07-13T00:36:17;16.10;99.90
52381;DHT22;38310;52.796;6.942;2023-07-13T00:38:43;16.10;99.90
52381;DHT22;38310;52.796;6.942;2023-07-13T00:41:09;16.10;99.90
52381;DHT22;38310;52.796;6.942;2023-07-13T00:43:36;16.00;99.90
52381;DHT22;38310;52.796;6.942;2023-07-13T00:46:15;16.00;99.90
52381;DHT22;38310;52.796;6.942;2023-07-13T00:48:42;16.00;99.90
52381;DHT22;38310;52.796;6.942;2023-07-13T00:51:10;15.90;99.90
52381;DHT22;38310;52.796;6.942;2023-07-13T00:53:36;15.90;99.90
52381;DHT22;38310;52.796;6.942;2023-07-13T00:56:03;15.90;99.90
52381;DHT22;38310;52.796;6.942;2023-07-13T00:58:29;15.80;99.90
52381;DHT22;38310;52.796;6.942;2023-07-13T01:00:55;15.80;99.90
52381;DHT22;38310;52.796;6.942;2023-07-13T01:03:21;15.90;99.90
52381;DHT22;38310;52.796;6.942;2023-07-13T01:05:48;15.80;99.90
52381;DHT22;38310;52.796;6.942;2023-07-13T01:08:15;15.80;99.90
52381;DHT22;38310;52.796;6.942;2023-07-13T01:10:50;15.80;99.90
52381;DHT22;38310;52.796;6.942;2023-07-13T01:13:16;15.80;99.90
52381;DHT22;38310;52.796;6.942;2023-07-13T01:15:44;15.80;99.90
52381;DHT22;38310;52.796;6.942;2023-07-13T01:18:14;15.90;99.90
52381;DHT22;38310;52.796;6.942;2023-07-13T01:20:41;15.90;99.90
52381;DHT22;38310;52.796;6.942;2023-07-13T01:23:09;15.90;99.90
52381;DHT22;38310;52.796;6.942;2023-07-13T01:25:36;15.90;99.90
52381;DHT22;38310;52.796;6.942;2023-07-13T01:28:05;15.90;99.90
52381;DHT22;38310;52.796;6.942;2023-07-13T01:30:31;16.00;99.90
52381;DHT22;38310;52.796;6.942;2023-07-13T01:32:57;16.00;99.90
52381;DHT22;38310;52.796;6.942;2023-07-13T01:35:23;16.00;99.90
52381;DHT22;38310;52.796;6.942;2023-07-13T01:37:51;16.00;99.90
52381;DHT22;38310;52.796;6.942;2023-07-13T01:40:17;16.00;99.90
52381;DHT22;38310;52.796;6.942;2023-07-13T01:42:43;16.30;99.90
52381;DHT22;38310;52.796;6.942;2023-07-13T01:45:09;16.10;99.90
52381;DHT22;38310;52.796;6.942;2023-07-13T01:47:34;16.10;99.90
52381;DHT22;38310;52.796;6.942;2023-07-13T01:50:00;16.10;99.90
52381;DHT22;38310;52.796;6.942;2023-07-13T01:52:26;16.10;99.90
52381;DHT22;38310;52.796;6.942;2023-07-13T01:54:52;16.10;99.90
52381;DHT22;38310;52.796;6.942;2023-07-13T01:57:17;16.10;99.90
52381;DHT22;38310;52.796;6.942;2023-07-13T01:59:43;16.10;99.90
52381;DHT22;38310;52.796;6.942;2023-07-13T02:02:09;16.10;99.90
52381;DHT22;38310;52.796;6.942;2023-07-13T02:04:34;16.00;99.90
52381;DHT22;38310;52.796;6.942;2023-07-13T02:07:00;16.10;99.90
52381;DHT22;38310;52.796;6.942;2023-07-13T02:09:26;16.10;99.90
52381;DHT22;38310;52.796;6.942;2023-07-13T02:11:52;16.10;99.90
52381;DHT22;38310;52.796;6.942;2023-07-13T02:14:18;16.10;99.90
52381;DHT22;38310;52.796;6.942;2023-07-13T02:16:43;16.20;99.90
52381;DHT22;38310;52.796;6.942;2023-07-13T02:19:09;16.20;99.90
52381;DHT22;38310;52.796;6.942;2023-07-13T02:21:35;16.20;99.90
52381;DHT22;38310;52.796;6.942;2023-07-13T02:24:01;16.20;99.90
52381;DHT22;38310;52.796;6.942;2023-07-13T02:26:27;16.20;99.90
52381;DHT22;38310;52.796;6.942;2023-07-13T02:28:53;16.20;99.90
52381;DHT22;38310;52.796;6.942;2023-07-13T02:31:19;16.20;99.90
52381;DHT22;38310;52.796;6.942;2023-07-13T02:33:44;16.20;99.90
52381;DHT22;38310;52.796;6.942;2023-07-13T02:36:11;16.20;99.90
52381;DHT22;38310;52.796;6.942;2023-07-13T02:38:37;16.20;99.90
52381;DHT22;38310;52.796;6.942;2023-07-13T02:41:07;16.20;99.90
52381;DHT22;38310;52.796;6.942;2023-07-13T02:43:34;16.20;99.90
52381;DHT22;38310;52.796;6.942;2023-07-13T02:46:01;16.10;99.90
52381;DHT22;38310;52.796;6.942;2023-07-13T02:48:35;16.10;99.90
52381;DHT22;38310;52.796;6.942;2023-07-13T02:51:01;16.10;99.90
52381;DHT22;38310;52.796;6.942;2023-07-13T02:53:27;16.10;99.90
52381;DHT22;38310;52.796;6.942;2023-07-13T02:55:53;16.10;99.90
52381;DHT22;38310;52.796;6.942;2023-07-13T02:58:19;16.10;99.90
52381;DHT22;38310;52.796;6.942;2023-07-13T03:00:46;16.10;99.90
52381;DHT22;38310;52.796;6.942;2023-07-13T03:03:15;16.10;99.90
52381;DHT22;38310;52.796;6.942;2023-07-13T03:05:42;16.10;99.90
52381;DHT22;38310;52.796;6.942;2023-07-13T03:08:12;16.10;99.90
52381;DHT22;38310;52.796;6.942;2023-07-13T03:10:38;16.10;99.90
52381;DHT22;38310;52.796;6.942;2023-07-13T03:13:05;16.00;99.90
52381;DHT22;38310;52.796;6.942;2023-07-13T03:15:31;16.10;99.90
52381;DHT22;38310;52.796;6.942;2023-07-13T03:17:56;16.10;99.90
52381;DHT22;38310;52.796;6.942;2023-07-13T03:20:22;16.10;99.90
52381;DHT22;38310;52.796;6.942;2023-07-13T03:22:48;16.00;99.90
52381;DHT22;38310;52.796;6.942;2023-07-13T03:25:14;15.40;99.90
52381;DHT22;38310;52.796;6.942;2023-07-13T03:27:40;16.00;99.90
52381;DHT22;38310;52.796;6.942;2023-07-13T03:30:06;15.90;99.90
52381;DHT22;38310;52.796;6.942;2023-07-13T03:32:32;16.00;99.90
52381;DHT22;38310;52.796;6.942;2023-07-13T03:34:58;16.00;99.90
52381;DHT22;38310;52.796;6.942;2023-07-13T03:37:24;16.00;99.90
52381;DHT22;38310;52.796;6.942;2023-07-13T03:39:50;16.00;99.90
52381;DHT22;38310;52.796;6.942;2023-07-13T03:42:16;16.00;99.90
52381;DHT22;38310;52.796;6.942;2023-07-13T03:44:42;16.00;99.90
52381;DHT22;38310;52.796;6.942;2023-07-13T03:47:11;16.00;99.90
52381;DHT22;38310;52.796;6.942;2023-07-13T03:49:37;16.00;99.90
52381;DHT22;38310;52.796;6.942;2023-07-13T03:52:03;16.00;99.90
52381;DHT22;38310;52.796;6.942;2023-07-13T03:54:29;16.00;99.90
52381;DHT22;38310;52.796;6.942;2023-07-13T03:56:55;16.00;99.90
52381;DHT22;38310;52.796;6.942;2023-07-13T03:59:21;16.00;99.90
52381;DHT22;38310;52.796;6.942;2023-07-13T04:01:47;15.90;99.90
52381;DHT22;38310;52.796;6.942;2023-07-13T04:04:12;15.90;99.90
52381;DHT22;38310;52.796;6.942;2023-07-13T04:06:38;15.90;99.90
52381;DHT22;38310;52.796;6.942;2023-07-13T04:09:04;15.80;99.90
52381;DHT22;38310;52.796;6.942;2023-07-13T04:11:34;15.80;99.90
52381;DHT22;38310;52.796;6.942;2023-07-13T04:14:02;15.80;99.90
52381;DHT22;38310;52.796;6.942;2023-07-13T04:16:28;15.80;99.90
52381;DHT22;38310;52.796;6.942;2023-07-13T04:18:55;15.80;99.90
52381;DHT22;38310;52.796;6.942;2023-07-13T04:21:25;15.80;99.90
52381;DHT22;38310;52.796;6.942;2023-07-13T04:23:51;15.80;99.90
52381;DHT22;38310;52.796;6.942;2023-07-13T04:26:17;15.80;99.90
52381;DHT22;38310;52.796;6.942;2023-07-13T04:28:44;15.70;99.90
52381;DHT22;38310;52.796;6.942;2023-07-13T04:31:10;15.80;99.90
52381;DHT22;38310;52.796;6.942;2023-07-13T04:33:36;15.80;99.90
52381;DHT22;38310;52.796;6.942;2023-07-13T04:36:01;15.70;99.90
52381;DHT22;38310;52.796;6.942;2023-07-13T04:38:29;15.80;99.90
52381;DHT22;38310;52.796;6.942;2023-07-13T04:40:56;15.80;99.90
52381;DHT22;38310;52.796;6.942;2023-07-13T04:43:23;15.70;99.90
52381;DHT22;38310;52.796;6.942;2023-07-13T04:45:50;15.70;99.90
52381;DHT22;38310;52.796;6.942;2023-07-13T04:48:16;15.60;99.90
52381;DHT22;38310;52.796;6.942;2023-07-13T04:50:42;15.70;99.90
52381;DHT22;38310;52.796;6.942;2023-07-13T04:53:09;15.70;99.90
52381;DHT22;38310;52.796;6.942;2023-07-13T04:55:36;15.80;99.90
52381;DHT22;38310;52.796;6.942;2023-07-13T04:58:01;15.80;99.90
52381;DHT22;38310;52.796;6.942;2023-07-13T05:00:28;15.70;99.90
52381;DHT22;38310;52.796;6.942;2023-07-13T05:02:58;15.70;99.90
52381;DHT22;38310;52.796;6.942;2023-07-13T05:05:25;15.70;99.90
52381;DHT22;38310;52.796;6.942;2023-07-13T05:07:52;15.60;99.90
52381;DHT22;38310;52.796;6.942;2023-07-13T05:10:18;15.70;99.90
52381;DHT22;38310;52.796;6.942;2023-07-13T05:12:44;15.60;99.90
52381;DHT22;38310;52.796;6.942;2023-07-13T05:15:10;15.60;99.90
52381;DHT22;38310;52.796;6.942;2023-07-13T05:17:36;15.60;99.90
52381;DHT22;38310;52.796;6.942;2023-07-13T05:20:02;15.60;99.90
52381;DHT22;38310;52.796;6.942;2023-07-13T05:22:28;15.60;99.90
52381;DHT22;38310;52.796;6.942;2023-07-13T05:24:53;15.60;99.90
52381;DHT22;38310;52.796;6.942;2023-07-13T05:27:19;15.70;99.90
52381;DHT22;38310;52.796;6.942;2023-07-13T05:29:45;15.80;99.90
52381;DHT22;38310;52.796;6.942;2023-07-13T05:32:10;15.90;99.90
52381;DHT22;38310;52.796;6.942;2023-07-13T05:34:36;15.80;99.90
52381;DHT22;38310;52.796;6.942;2023-07-13T05:37:02;15.90;99.90
52381;DHT22;38310;52.796;6.942;2023-07-13T05:39:27;15.90;99.90
52381;DHT22;38310;52.796;6.942;2023-07-13T05:41:53;15.90;99.90
52381;DHT22;38310;52.796;6.942;2023-07-13T05:44:19;16.00;99.90
52381;DHT22;38310;52.796;6.942;2023-07-13T05:46:45;16.00;99.90
52381;DHT22;38310;52.796;6.942;2023-07-13T05:49:11;16.10;99.90
52381;DHT22;38310;52.796;6.942;2023-07-13T05:51:36;16.20;99.90
52381;DHT22;38310;52.796;6.942;2023-07-13T05:54:02;16.20;99.90
52381;DHT22;38310;52.796;6.942;2023-07-13T05:56:28;16.30;99.90
52381;DHT22;38310;52.796;6.942;2023-07-13T05:58:54;16.40;99.90
52381;DHT22;38310;52.796;6.942;2023-07-13T06:01:20;16.50;99.90
52381;DHT22;38310;52.796;6.942;2023-07-13T06:03:47;16.60;99.90
52381;DHT22;38310;52.796;6.942;2023-07-13T06:06:13;16.70;99.90
52381;DHT22;38310;52.796;6.942;2023-07-13T06:08:39;16.70;99.90
52381;DHT22;38310;52.796;6.942;2023-07-13T06:11:13;16.70;99.90
52381;DHT22;38310;52.796;6.942;2023-07-13T06:13:39;16.90;99.90
52381;DHT22;38310;52.796;6.942;2023-07-13T06:16:05;17.00;99.90
52381;DHT22;38310;52.796;6.942;2023-07-13T06:18:32;17.10;99.90
52381;DHT22;38310;52.796;6.942;2023-07-13T06:20:58;17.20;99.90
52381;DHT22;38310;52.796;6.942;2023-07-13T06:23:25;17.30;99.90
52381;DHT22;38310;52.796;6.942;2023-07-13T06:25:51;17.30;99.90
52381;DHT22;38310;52.796;6.942;2023-07-13T06:28:16;17.40;99.90
52381;DHT22;38310;52.796;6.942;2023-07-13T06:30:42;17.50;99.90
52381;DHT22;38310;52.796;6.942;2023-07-13T06:33:08;17.60;99.90
52381;DHT22;38310;52.796;6.942;2023-07-13T06:35:33;17.60;99.90
52381;DHT22;38310;52.796;6.942;2023-07-13T06:37:59;17.80;99.90
52381;DHT22;38310;52.796;6.942;2023-07-13T06:40:25;17.70;99.90
52381;DHT22;38310;52.796;6.942;2023-07-13T06:42:51;17.80;99.90
52381;DHT22;38310;52.796;6.942;2023-07-13T06:45:17;17.80;99.90
52381;DHT22;38310;52.796;6.942;2023-07-13T06:47:42;18.00;99.90
52381;DHT22;38310;52.796;6.942;2023-07-13T06:50:09;18.10;99.90
52381;DHT22;38310;52.796;6.942;2023-07-13T06:52:34;18.10;99.90
52381;DHT22;38310;52.796;6.942;2023-07-13T06:55:01;18.30;99.90
52381;DHT22;38310;52.796;6.942;2023-07-13T06:57:26;18.40;99.90
52381;DHT22;38310;52.796;6.942;2023-07-13T06:59:53;18.30;99.90
52381;DHT22;38310;52.796;6.942;2023-07-13T07:02:18;18.50;99.90
52381;DHT22;38310;52.796;6.942;2023-07-13T07:04:44;18.70;99.90
52381;DHT22;38310;52.796;6.942;2023-07-13T07:07:10;18.80;99.90
52381;DHT22;38310;52.796;6.942;2023-07-13T07:09:36;19.00;99.90
52381;DHT22;38310;52.796;6.942;2023-07-13T07:12:02;18.90;99.90
52381;DHT22;38310;52.796;6.942;2023-07-13T07:14:29;19.10;99.90
52381;DHT22;38310;52.796;6.942;2023-07-13T07:16:55;19.40;99.90
52381;DHT22;38310;52.796;6.942;2023-07-13T07:19:21;19.50;99.90
52381;DHT22;38310;52.796;6.942;2023-07-13T07:21:47;19.50;99.90
52381;DHT22;38310;52.796;6.942;2023-07-13T07:24:12;19.30;99.90
52381;DHT22;38310;52.796;6.942;2023-07-13T07:26:38;19.20;99.90
52381;DHT22;38310;52.796;6.942;2023-07-13T07:29:04;19.50;99.90
52381;DHT22;38310;52.796;6.942;2023-07-13T07:31:29;19.60;99.90
52381;DHT22;38310;52.796;6.942;2023-07-13T07:33:55;19.30;99.90
52381;DHT22;38310;52.796;6.942;2023-07-13T07:36:21;19.40;99.90
52381;DHT22;38310;52.796;6.942;2023-07-13T07:38:46;19.40;99.90
52381;DHT22;38310;52.796;6.942;2023-07-13T07:41:13;19.40;99.90
52381;DHT22;38310;52.796;6.942;2023-07-13T07:43:38;19.40;99.90
52381;DHT22;38310;52.796;6.942;2023-07-13T07:46:04;19.70;99.90
52381;DHT22;38310;52.796;6.942;2023-07-13T07:48:30;19.60;99.90
52381;DHT22;38310;52.796;6.942;2023-07-13T07:50:56;19.80;99.90
52381;DHT22;38310;52.796;6.942;2023-07-13T07:53:22;19.70;99.90
52381;DHT22;38310;52.796;6.942;2023-07-13T07:55:48;19.40;99.90
52381;DHT22;38310;52.796;6.942;2023-07-13T07:58:14;19.60;99.90
52381;DHT22;38310;52.796;6.942;2023-07-13T08:00:39;19.50;99.90
52381;DHT22;38310;52.796;6.942;2023-07-13T08:03:06;19.20;99.90
52381;DHT22;38310;52.796;6.942;2023-07-13T08:05:31;19.20;99.90
52381;DHT22;38310;52.796;6.942;2023-07-13T08:08:00;19.10;99.90
52381;DHT22;38310;52.796;6.942;2023-07-13T08:10:26;19.00;99.90
52381;DHT22;38310;52.796;6.942;2023-07-13T08:12:51;19.20;99.90
52381;DHT22;38310;52.796;6.942;2023-07-13T08:15:18;19.20;99.90
52381;DHT22;38310;52.796;6.942;2023-07-13T08:17:49;19.50;99.90
52381;DHT22;38310;52.796;6.942;2023-07-13T08:20:15;19.70;99.90
52381;DHT22;38310;52.796;6.942;2023-07-13T08:22:41;19.70;99.90
52381;DHT22;38310;52.796;6.942;2023-07-13T08:25:07;19.50;99.90
52381;DHT22;38310;52.796;6.942;2023-07-13T08:27:33;19.60;99.90
52381;DHT22;38310;52.796;6.942;2023-07-13T08:29:59;19.60;99.90
52381;DHT22;38310;52.796;6.942;2023-07-13T08:32:24;19.90;99.90
52381;DHT22;38310;52.796;6.942;2023-07-13T08:34:51;19.90;99.90
52381;DHT22;38310;52.796;6.942;2023-07-13T08:37:17;20.10;99.90
52381;DHT22;38310;52.796;6.942;2023-07-13T08:39:43;20.20;99.90
52381;DHT22;38310;52.796;6.942;2023-07-13T08:47:42;20.40;99.90
52381;DHT22;38310;52.796;6.942;2023-07-13T08:50:17;20.60;99.90
52381;DHT22;38310;52.796;6.942;2023-07-13T08:52:44;20.50;99.90
52381;DHT22;38310;52.796;6.942;2023-07-13T08:55:27;20.60;99.90
52381;DHT22;38310;52.796;6.942;2023-07-13T08:58:14;21.10;99.90
52381;DHT22;38310;52.796;6.942;2023-07-13T09:03:42;20.60;99.90
52381;DHT22;38310;52.796;6.942;2023-07-13T09:06:12;20.90;99.90
52381;DHT22;38310;52.796;6.942;2023-07-13T09:09:01;21.20;99.90
52381;DHT22;38310;52.796;6.942;2023-07-13T09:14:41;21.40;99.90
52381;DHT22;38310;52.796;6.942;2023-07-13T09:17:32;21.40;99.90
52381;DHT22;38310;52.796;6.942;2023-07-13T09:20:02;21.30;99.90
52381;DHT22;38310;52.796;6.942;2023-07-13T09:22:32;21.20;99.90
52381;DHT22;38310;52.796;6.942;2023-07-13T09:25:30;20.80;99.90
52381;DHT22;38310;52.796;6.942;2023-07-13T09:28:20;20.30;99.90
52381;DHT22;38310;52.796;6.942;2023-07-13T09:31:08;19.90;99.90
52381;DHT22;38310;52.796;6.942;2023-07-13T09:33:35;19.20;99.90
52381;DHT22;38310;52.796;6.942;2023-07-13T09:36:05;18.30;99.90
52381;DHT22;38310;52.796;6.942;2023-07-13T09:38:40;17.90;99.90
52381;DHT22;38310;52.796;6.942;2023-07-13T09:41:33;17.50;99.90
52381;DHT22;38310;52.796;6.942;2023-07-13T09:44:09;16.50;99.90
52381;DHT22;38310;52.796;6.942;2023-07-13T09:46:35;16.10;99.90
52381;DHT22;38310;52.796;6.942;2023-07-13T09:49:01;16.20;99.90
52381;DHT22;38310;52.796;6.942;2023-07-13T09:51:27;15.80;99.90
52381;DHT22;38310;52.796;6.942;2023-07-13T09:53:53;15.80;99.90
52381;DHT22;38310;52.796;6.942;2023-07-13T09:56:26;15.60;99.90
52381;DHT22;38310;52.796;6.942;2023-07-13T09:58:52;15.50;99.90
52381;DHT22;38310;52.796;6.942;2023-07-13T10:01:38;15.50;99.90
52381;DHT22;38310;52.796;6.942;2023-07-13T10:04:12;15.40;99.90
52381;DHT22;38310;52.796;6.942;2023-07-13T10:06:39;15.40;99.90
52381;DHT22;38310;52.796;6.942;2023-07-13T10:09:09;15.30;99.90
52381;DHT22;38310;52.796;6.942;2023-07-13T10:11:36;15.50;99.90
52381;DHT22;38310;52.796;6.942;2023-07-13T10:14:16;15.40;99.90
52381;DHT22;38310;52.796;6.942;2023-07-13T10:16:44;15.60;99.90
52381;DHT22;38310;52.796;6.942;2023-07-13T10:19:24;16.00;99.90
52381;DHT22;38310;52.796;6.942;2023-07-13T10:21:57;16.20;99.90
52381;DHT22;38310;52.796;6.942;2023-07-13T10:24:32;16.40;99.90
52381;DHT22;38310;52.796;6.942;2023-07-13T10:27:19;16.50;99.90
52381;DHT22;38310;52.796;6.942;2023-07-13T10:29:50;16.80;99.90
52381;DHT22;38310;52.796;6.942;2023-07-13T10:32:20;17.00;99.90
52381;DHT22;38310;52.796;6.942;2023-07-13T10:34:48;17.40;99.90
52381;DHT22;38310;52.796;6.942;2023-07-13T10:37:24;18.00;99.90
52381;DHT22;38310;52.796;6.942;2023-07-13T10:39:55;18.20;99.90
52381;DHT22;38310;52.796;6.942;2023-07-13T10:42:38;18.00;99.90
52381;DHT22;38310;52.796;6.942;2023-07-13T10:45:17;18.10;99.90
52381;DHT22;38310;52.796;6.942;2023-07-13T10:47:47;18.30;99.90
52381;DHT22;38310;52.796;6.942;2023-07-13T10:50:18;18.50;99.90
52381;DHT22;38310;52.796;6.942;2023-07-13T10:52:54;18.70;99.90
52381;DHT22;38310;52.796;6.942;2023-07-13T10:58:22;19.50;99.90
52381;DHT22;38310;52.796;6.942;2023-07-13T11:01:15;20.10;99.90
52381;DHT22;38310;52.796;6.942;2023-07-13T11:03:54;20.20;99.90
52381;DHT22;38310;52.796;6.942;2023-07-13T11:06:43;20.90;99.90
52381;DHT22;38310;52.796;6.942;2023-07-13T11:12:00;21.00;99.90
52381;DHT22;38310;52.796;6.942;2023-07-13T11:17:37;21.40;99.90
52381;DHT22;38310;52.796;6.942;2023-07-13T11:22:43;21.80;99.90
52381;DHT22;38310;52.796;6.942;2023-07-13T11:25:30;22.10;99.90
52381;DHT22;38310;52.796;6.942;2023-07-13T11:36:20;21.00;99.90
52381;DHT22;38310;52.796;6.942;2023-07-13T11:39:04;20.60;99.90
52381;DHT22;38310;52.796;6.942;2023-07-13T11:41:44;20.30;99.90
52381;DHT22;38310;52.796;6.942;2023-07-13T11:44:17;19.70;99.90
52381;DHT22;38310;52.796;6.942;2023-07-13T11:46:49;19.60;99.90
52381;DHT22;38310;52.796;6.942;2023-07-13T11:49:21;19.70;99.90
52381;DHT22;38310;52.796;6.942;2023-07-13T11:51:48;19.70;99.90
52381;DHT22;38310;52.796;6.942;2023-07-13T11:54:31;19.90;99.90
52381;DHT22;38310;52.796;6.942;2023-07-13T11:57:20;19.90;99.90
52381;DHT22;38310;52.796;6.942;2023-07-13T11:59:51;20.20;99.90
52381;DHT22;38310;52.796;6.942;2023-07-13T12:02:39;20.40;99.90
52381;DHT22;38310;52.796;6.942;2023-07-13T12:05:08;20.40;99.90
52381;DHT22;38310;52.796;6.942;2023-07-13T12:07:35;21.10;99.90
52381;DHT22;38310;52.796;6.942;2023-07-13T12:12:48;21.90;99.90
52381;DHT22;38310;52.796;6.942;2023-07-13T12:15:14;21.70;99.90
52381;DHT22;38310;52.796;6.942;2023-07-13T12:17:41;21.50;99.90
52381;DHT22;38310;52.796;6.942;2023-07-13T12:20:33;21.90;99.90
52381;DHT22;38310;52.796;6.942;2023-07-13T12:23:00;22.60;99.90
52381;DHT22;38310;52.796;6.942;2023-07-13T12:25:28;23.20;99.90
52381;DHT22;38310;52.796;6.942;2023-07-13T12:27:55;22.90;99.90
52381;DHT22;38310;52.796;6.942;2023-07-13T12:30:29;23.40;99.90
52381;DHT22;38310;52.796;6.942;2023-07-13T12:35:29;23.30;99.90
52381;DHT22;38310;52.796;6.942;2023-07-13T12:37:57;24.20;99.90
52381;DHT22;38310;52.796;6.942;2023-07-13T12:40:31;23.90;99.90
52381;DHT22;38310;52.796;6.942;2023-07-13T12:42:58;23.70;99.90
52381;DHT22;38310;52.796;6.942;2023-07-13T12:45:28;23.20;99.90
52381;DHT22;38310;52.796;6.942;2023-07-13T12:47:56;23.10;99.90
52381;DHT22;38310;52.796;6.942;2023-07-13T12:50:30;23.20;99.90
52381;DHT22;38310;52.796;6.942;2023-07-13T12:53:02;23.00;99.90
52381;DHT22;38310;52.796;6.942;2023-07-13T12:55:59;22.80;99.90
52381;DHT22;38310;52.796;6.942;2023-07-13T12:58:32;22.60;99.90
52381;DHT22;38310;52.796;6.942;2023-07-13T13:01:02;22.50;99.90
52381;DHT22;38310;52.796;6.942;2023-07-13T13:04:08;22.40;99.90
52381;DHT22;38310;52.796;6.942;2023-07-13T13:06:28;22.20;99.90
52381;DHT22;38310;52.796;6.942;2023-07-13T13:08:56;22.00;99.90
52381;DHT22;38310;52.796;6.942;2023-07-13T13:11:28;21.90;99.90
52381;DHT22;38310;52.796;6.942;2023-07-13T13:13:55;21.90;99.90
52381;DHT22;38310;52.796;6.942;2023-07-13T13:16:50;22.00;99.90
52381;DHT22;38310;52.796;6.942;2023-07-13T13:19:27;21.90;99.90
52381;DHT22;38310;52.796;6.942;2023-07-13T13:21:55;22.10;99.90
52381;DHT22;38310;52.796;6.942;2023-07-13T13:24:24;22.40;99.90
52381;DHT22;38310;52.796;6.942;2023-07-13T13:26:51;23.30;99.90
52381;DHT22;38310;52.796;6.942;2023-07-13T13:29:23;23.50;99.90
52381;DHT22;38310;52.796;6.942;2023-07-13T13:31:55;23.80;99.90
52381;DHT22;38310;52.796;6.942;2023-07-13T13:34:22;23.70;99.90
52381;DHT22;38310;52.796;6.942;2023-07-13T13:36:52;23.30;99.90
52381;DHT22;38310;52.796;6.942;2023-07-13T13:41:44;24.40;99.90
52381;DHT22;38310;52.796;6.942;2023-07-13T13:44:10;24.40;99.90
52381;DHT22;38310;52.796;6.942;2023-07-13T13:46:36;24.70;99.90
52381;DHT22;38310;52.796;6.942;2023-07-13T13:49:02;25.00;99.90
52381;DHT22;38310;52.796;6.942;2023-07-13T13:51:28;25.30;99.90
52381;DHT22;38310;52.796;6.942;2023-07-13T13:53:55;25.20;99.90
52381;DHT22;38310;52.796;6.942;2023-07-13T13:56:21;25.10;99.90
52381;DHT22;38310;52.796;6.942;2023-07-13T13:58:47;25.10;99.90
52381;DHT22;38310;52.796;6.942;2023-07-13T14:01:18;25.20;99.90
52381;DHT22;38310;52.796;6.942;2023-07-13T14:03:44;25.80;99.90
52381;DHT22;38310;52.796;6.942;2023-07-13T14:06:15;25.80;99.90
52381;DHT22;38310;52.796;6.942;2023-07-13T14:08:41;26.00;99.90
52381;DHT22;38310;52.796;6.942;2023-07-13T14:11:12;25.70;99.90
52381;DHT22;38310;52.796;6.942;2023-07-13T14:13:48;25.80;99.90
52381;DHT22;38310;52.796;6.942;2023-07-13T14:16:19;26.20;99.90
52381;DHT22;38310;52.796;6.942;2023-07-13T14:18:46;25.90;98.40
52381;DHT22;38310;52.796;6.942;2023-07-13T14:21:17;26.20;99.20
52381;DHT22;38310;52.796;6.942;2023-07-13T14:23:45;26.00;99.00
52381;DHT22;38310;52.796;6.942;2023-07-13T14:26:13;26.00;99.90
52381;DHT22;38310;52.796;6.942;2023-07-13T14:28:45;26.10;98.10
52381;DHT22;38310;52.796;6.942;2023-07-13T14:31:12;26.10;97.20
52381;DHT22;38310;52.796;6.942;2023-07-13T14:33:38;26.30;98.50
52381;DHT22;38310;52.796;6.942;2023-07-13T14:36:29;26.00;99.00
52381;DHT22;38310;52.796;6.942;2023-07-13T14:38:57;26.10;97.70
52381;DHT22;38310;52.796;6.942;2023-07-13T14:41:23;25.60;98.40
52381;DHT22;38310;52.796;6.942;2023-07-13T14:43:50;26.00;99.10
52381;DHT22;38310;52.796;6.942;2023-07-13T14:46:30;25.80;97.80
52381;DHT22;38310;52.796;6.942;2023-07-13T14:49:02;26.10;97.30
52381;DHT22;38310;52.796;6.942;2023-07-13T14:51:29;25.90;96.70
52381;DHT22;38310;52.796;6.942;2023-07-13T14:53:56;26.00;98.40
52381;DHT22;38310;52.796;6.942;2023-07-13T14:56:21;25.90;98.30
52381;DHT22;38310;52.796;6.942;2023-07-13T14:58:47;25.80;97.80
52381;DHT22;38310;52.796;6.942;2023-07-13T15:01:15;25.30;97.10
52381;DHT22;38310;52.796;6.942;2023-07-13T15:03:47;25.60;97.20
52381;DHT22;38310;52.796;6.942;2023-07-13T15:06:13;25.80;98.10
52381;DHT22;38310;52.796;6.942;2023-07-13T15:08:40;25.80;97.50
52381;DHT22;38310;52.796;6.942;2023-07-13T15:11:09;25.20;96.90
52381;DHT22;38310;52.796;6.942;2023-07-13T15:13:39;25.30;97.90
52381;DHT22;38310;52.796;6.942;2023-07-13T15:16:27;25.20;97.80
52381;DHT22;38310;52.796;6.942;2023-07-13T15:18:53;25.20;96.70
52381;DHT22;38310;52.796;6.942;2023-07-13T15:21:22;25.40;97.90
52381;DHT22;38310;52.796;6.942;2023-07-13T15:23:49;25.50;96.90
52381;DHT22;38310;52.796;6.942;2023-07-13T15:26:16;25.60;98.00
52381;DHT22;38310;52.796;6.942;2023-07-13T15:28:43;25.60;98.50
52381;DHT22;38310;52.796;6.942;2023-07-13T15:31:24;25.40;98.10
52381;DHT22;38310;52.796;6.942;2023-07-13T15:33:51;25.30;97.70
52381;DHT22;38310;52.796;6.942;2023-07-13T15:36:21;25.30;98.40
52381;DHT22;38310;52.796;6.942;2023-07-13T15:38:48;25.00;97.90
52381;DHT22;38310;52.796;6.942;2023-07-13T15:41:18;24.70;97.20
52381;DHT22;38310;52.796;6.942;2023-07-13T15:43:52;24.40;98.80
52381;DHT22;38310;52.796;6.942;2023-07-13T15:46:20;24.40;98.80
52381;DHT22;38310;52.796;6.942;2023-07-13T15:48:53;24.30;98.70
52381;DHT22;38310;52.796;6.942;2023-07-13T15:51:27;24.40;98.80
52381;DHT22;38310;52.796;6.942;2023-07-13T15:53:55;24.50;98.80
52381;DHT22;38310;52.796;6.942;2023-07-13T15:56:26;24.20;98.60
52381;DHT22;38310;52.796;6.942;2023-07-13T15:58:52;23.90;98.40
52381;DHT22;38310;52.796;6.942;2023-07-13T16:01:18;23.90;98.20
52381;DHT22;38310;52.796;6.942;2023-07-13T16:03:48;23.80;97.80
52381;DHT22;38310;52.796;6.942;2023-07-13T16:06:24;23.70;98.30
52381;DHT22;38310;52.796;6.942;2023-07-13T16:08:51;23.80;97.90
52381;DHT22;38310;52.796;6.942;2023-07-13T16:11:31;23.60;98.80
52381;DHT22;38310;52.796;6.942;2023-07-13T16:13:58;23.50;98.50
52381;DHT22;38310;52.796;6.942;2023-07-13T16:16:28;23.50;98.90
52381;DHT22;38310;52.796;6.942;2023-07-13T16:18:59;23.50;98.30
52381;DHT22;38310;52.796;6.942;2023-07-13T16:21:30;23.40;97.80